Flight Track Log - Related Links

Times and Time Zones

All times are in EDT time to prevent confusion due to time zone crossing. See the ASA125 flight status page for this flight to view local times or setup timezone preferences in your user account.

Time Position Orientation Groundspeed Altitude Reporting Facility
EDT Latitude Longitude Course Direction KTS MPH feet Rate Location/Type
Sun 03:27:11 AM 47.4681 -122.3086 North 176 203 1,500  Level Seattle Center
Sun 03:27:47 AM 47.4992 -122.3081 North 188 216 2,400 2,165 Climbing Seattle Center
Sun 03:28:48 AM 47.5639 -122.3181 354° North 247 284 5,000 2,426 Climbing Seattle Center
Sun 03:29:21 AM 47.5917 -122.3469 325° Northwest 239 275 6,200 2,516 Climbing Seattle Center
Sun 03:30:21 AM 47.6311 -122.4319 305° West 255 293 8,900 2,300 Climbing Seattle Center
Sun 03:31:21 AM 47.6892 -122.4875 327° Northwest 285 328 10,800 1,488 Climbing Seattle Center
Sun 03:32:22 AM 47.7867 -122.4778 North 354 407 11,900 1,438 Climbing Seattle Center
Sun 03:33:22 AM 47.8903 -122.4819 358° North 394 453 13,700 2,100 Climbing Seattle Center
Sun 03:34:22 AM 47.9361 -122.6000 300° West 352 405 16,100 2,150 Climbing Seattle Center
Sun 03:35:22 AM 47.9533 -122.7400 280° West 349 402 18,000 1,850 Climbing Seattle Center
Sun 03:36:22 AM 47.9711 -122.8825 281° West 355 409 19,800 1,900 Climbing Seattle Center
Sun 03:37:22 AM 47.9886 -123.0275 280° West 360 414 21,800 1,650 Climbing Seattle Center
Sun 03:38:22 AM 48.0086 -123.1736 282° West 362 417 23,100 1,250 Climbing Seattle Center
Sun 03:39:22 AM 48.0733 -123.2989 308° West 408 470 24,300 1,412 Climbing Seattle Center
Sun 03:40:04 AM 48.1500 -123.3667 329° Northwest 420 483 25,500 1,706 Climbing Vancouver Center
Sun 03:41:04 AM 48.2333 -123.4500 326° Northwest 420 483 27,200 1,500 Climbing Vancouver Center
Sun 03:42:04 AM 48.3333 -123.5500 326° Northwest 420 483 28,500 1,400 Climbing Vancouver Center
Sun 03:43:04 AM 48.4333 -123.6167 336° Northwest 410 472 30,000 750 Climbing Vancouver Center
Sun 03:44:04 AM 48.5333 -123.7167 326° Northwest 400 460 30,000  Level Vancouver Center
Sun 03:45:04 AM 48.6333 -123.8000 331° Northwest 400 460 30,000  Level Vancouver Center
Sun 03:46:04 AM 48.7167 -123.9000 322° Northwest 400 460 30,000  Level Vancouver Center
Sun 03:47:04 AM 48.8167 -123.9833 331° Northwest 400 460 30,000  Level Vancouver Center
Sun 03:48:04 AM 48.9167 -124.0833 327° Northwest 400 460 30,000  Level Vancouver Center
Sun 03:49:04 AM 49.0000 -124.1500 332° Northwest 400 460 30,000  Level Vancouver Center
Sun 03:50:04 AM 49.1000 -124.2500 327° Northwest 400 460 30,000  Level Vancouver Center
Sun 03:51:04 AM 49.2000 -124.3333 331° Northwest 400 460 30,000  Level Vancouver Center
Sun 03:52:04 AM 49.2833 -124.4333 322° Northwest 390 449 30,000  Level Vancouver Center
Sun 03:53:04 AM 49.3833 -124.5167 332° Northwest 390 449 30,000  Level Vancouver Center
Sun 03:54:04 AM 49.4667 -124.6000 327° Northwest 390 449 30,000  Level Vancouver Center
Sun 03:55:04 AM 49.5667 -124.7000 327° Northwest 390 449 30,000  Level Vancouver Center
Sun 03:56:04 AM 49.6500 -124.7833 327° Northwest 390 449 30,000  Level Vancouver Center
Sun 03:57:04 AM 49.7500 -124.8667 332° Northwest 390 449 30,000  Level Vancouver Center
Sun 03:58:04 AM 49.8333 -124.9667 322° Northwest 390 449 30,000  Level Vancouver Center
Sun 03:59:04 AM 49.9333 -125.0500 332° Northwest 390 449 30,000  Level Vancouver Center
Sun 04:00:04 AM 50.0333 -125.1167 337° Northwest 390 449 30,000  Level Vancouver Center
Sun 04:01:04 AM 50.1167 -125.2333 318° Northwest 390 449 30,000  Level Vancouver Center
Sun 04:02:04 AM 50.2167 -125.3167 332° Northwest 400 460 30,000  Level Vancouver Center
Sun 04:03:04 AM 50.3167 -125.4167 327° Northwest 390 449 30,000  Level Vancouver Center
Sun 04:04:04 AM 50.4000 -125.5000 327° Northwest 390 449 30,000  Level Vancouver Center
Sun 04:05:04 AM 50.5000 -125.5833 332° Northwest 390 449 30,000  Level Vancouver Center
Sun 04:06:04 AM 50.5833 -125.6833 323° Northwest 390 449 30,000  Level Vancouver Center
Sun 04:07:04 AM 50.6667 -125.7667 328° Northwest 390 449 30,000  Level Vancouver Center
Sun 04:08:04 AM 50.7500 -125.8500 328° Northwest 390 449 30,000  Level Vancouver Center
Sun 04:09:04 AM 50.8500 -125.9667 324° Northwest 390 449 30,000  Level Vancouver Center
Sun 04:10:04 AM 50.9500 -126.0500 332° Northwest 380 437 30,000  Level Vancouver Center
Sun 04:11:04 AM 51.0333 -126.1333 328° Northwest 380 437 30,000  Level Vancouver Center
Sun 04:12:04 AM 51.1167 -126.2500 319° Northwest 380 437 30,000  Level Vancouver Center
Sun 04:13:04 AM 51.2167 -126.3333 332° Northwest 380 437 30,000  Level Vancouver Center
Sun 04:14:04 AM 51.3167 -126.4167 332° Northwest 390 449 30,000  Level Vancouver Center
Sun 04:15:04 AM 51.4000 -126.5333 319° Northwest 390 449 30,000  Level Vancouver Center
Sun 04:16:04 AM 51.5000 -126.6167 333° Northwest 400 460 30,000  Level Vancouver Center
Sun 04:17:04 AM 51.5667 -126.7333 313° West 400 460 30,000  Level Vancouver Center
Sun 04:18:04 AM 51.6667 -126.8167 333° Northwest 400 460 30,000  Level Vancouver Center
Sun 04:19:04 AM 51.7667 -126.9333 324° Northwest 410 472 30,000  Level Vancouver Center
Sun 04:20:04 AM 51.8667 -127.0167 333° Northwest 410 472 30,000  Level Vancouver Center
Sun 04:21:04 AM 51.9667 -127.1333 324° Northwest 410 472 30,000  Level Vancouver Center
Sun 04:22:04 AM 52.0667 -127.2167 333° Northwest 420 483 30,000  Level Vancouver Center
Sun 04:23:04 AM 52.1500 -127.3333 319° Northwest 420 483 30,000  Level Vancouver Center
Sun 04:24:04 AM 52.2500 -127.4333 329° Northwest 420 483 30,000  Level Vancouver Center
Sun 04:25:04 AM 52.3500 -127.5500 325° Northwest 420 483 30,000  Level Vancouver Center
Sun 04:26:04 AM 52.4500 -127.6667 325° Northwest 420 483 30,000  Level Vancouver Center
Sun 04:27:04 AM 52.5500 -127.7500 333° Northwest 420 483 30,000  Level Vancouver Center
Sun 04:28:04 AM 52.6500 -127.8667 325° Northwest 420 483 30,000  Level Vancouver Center
Sun 04:29:04 AM 52.7333 -127.9833 320° Northwest 420 483 30,000  Level Vancouver Center
Sun 04:30:04 AM 52.8333 -128.0833 329° Northwest 420 483 30,000  Level Vancouver Center
Sun 04:31:04 AM 52.9333 -128.2000 325° Northwest 420 483 30,000  Level Vancouver Center
Sun 04:32:04 AM 53.0333 -128.3000 329° Northwest 430 495 30,000  Level Vancouver Center
Sun 04:33:04 AM 53.1167 -128.4167 320° Northwest 420 483 30,000  Level Vancouver Center
Sun 04:34:04 AM 53.2167 -128.5333 325° Northwest 420 483 30,000  Level Vancouver Center
Sun 04:35:04 AM 53.3167 -128.6667 321° Northwest 430 495 30,000  Level Vancouver Center
Sun 04:36:04 AM 53.4167 -128.7500 334° Northwest 430 495 30,000  Level Vancouver Center
Sun 04:37:04 AM 53.5000 -128.8833 316° Northwest 430 495 30,000  Level Vancouver Center
Sun 04:38:04 AM 53.6000 -129.0000 325° Northwest 430 495 30,000  Level Vancouver Center
Sun 04:39:04 AM 53.7167 -129.1333 326° Northwest 430 495 30,000  Level Vancouver Center
Sun 04:40:04 AM 53.8167 -129.2333 329° Northwest 430 495 30,000  Level Vancouver Center
Sun 04:41:04 AM 53.9000 -129.3500 321° Northwest 430 495 30,000  Level Vancouver Center
Sun 04:42:04 AM 54.0000 -129.4833 322° Northwest 440 506 30,000  Level Vancouver Center
Sun 04:43:04 AM 54.1000 -129.5833 330° Northwest 440 506 30,000  Level Vancouver Center
Sun 04:44:04 AM 54.1833 -129.7000 321° Northwest 430 495 30,000  Level Vancouver Center
Sun 04:45:04 AM 54.2833 -129.8333 322° Northwest 430 495 30,000  Level Vancouver Center
Sun 04:46:04 AM 54.4000 -129.9667 326° Northwest 430 495 30,000  Level Vancouver Center
Sun 04:47:04 AM 54.4667 -130.0667 319° Northwest 430 495 30,000  Level Vancouver Center
Sun 04:48:04 AM 54.5833 -130.2000 326° Northwest 420 483 30,000  Level Vancouver Center
Sun 04:49:04 AM 54.6833 -130.3000 330° Northwest 420 483 30,000  Level Vancouver Center
Sun 04:50:04 AM 54.7667 -130.4167 321° Northwest 430 495 30,000  Level Vancouver Center
Sun 04:51:04 AM 54.8667 -130.5500 323° Northwest 420 483 30,000  Level Vancouver Center
Sun 04:52:04 AM 54.9500 -130.6833 317° Northwest 430 495 30,000  Level Vancouver Center
Sun 04:53:04 AM 55.0500 -130.7833 330° Northwest 420 483 30,000  Level Vancouver Center
Sun 04:54:04 AM 55.1500 -130.8833 330° Northwest 430 495 30,000  Level Anchorage Center
Sun 04:55:05 AM 55.2500 -131.0167 323° Northwest 430 495 30,000  Level Anchorage Center
Sun 04:56:05 AM 55.3333 -131.1333 321° Northwest 440 506 30,000  Level Anchorage Center
Sun 04:57:06 AM 55.4333 -131.2667 323° Northwest 430 495 30,000  Level Anchorage Center
Sun 04:58:06 AM 55.5333 -131.3833 327° Northwest 430 495 30,000  Level Anchorage Center
Sun 04:59:06 AM 55.6333 -131.5167 323° Northwest 430 495 30,000  Level Anchorage Center
Sun 05:00:07 AM 55.7167 -131.6500 318° Northwest 430 495 30,000  Level Anchorage Center
Sun 05:01:07 AM 55.8167 -131.7667 327° Northwest 420 483 30,000  Level Anchorage Center
Sun 05:02:07 AM 55.9000 -131.9000 318° Northwest 430 495 30,000  Level Anchorage Center
Sun 05:03:08 AM 56.0000 -132.0000 331° Northwest 430 495 30,000  Level Anchorage Center
Sun 05:04:08 AM 56.0833 -132.1333 318° Northwest 430 495 30,000  Level Anchorage Center
Sun 05:05:08 AM 56.1833 -132.2667 323° Northwest 420 483 30,000  Level Anchorage Center
Sun 05:06:09 AM 56.2667 -132.4000 318° Northwest 430 495 30,000  Level Anchorage Center
Sun 05:07:09 AM 56.3667 -132.5333 324° Northwest 430 495 30,000  Level Anchorage Center
Sun 05:08:09 AM 56.4667 -132.6667 324° Northwest 430 495 30,000  Level Anchorage Center
Sun 05:09:10 AM 56.5500 -132.8000 319° Northwest 430 495 30,000  Level Anchorage Center
Sun 05:10:10 AM 56.6500 -132.9333 324° Northwest 440 506 30,000  Level Anchorage Center
Sun 05:11:10 AM 56.7667 -133.1000 322° Northwest 440 506 30,000  Level Anchorage Center
Sun 05:12:11 AM 56.8500 -133.2333 319° Northwest 440 506 30,000  Level Anchorage Center
Sun 05:13:11 AM 56.9500 -133.3833 321° Northwest 440 506 30,000  Level Anchorage Center
Sun 05:14:12 AM 57.0500 -133.5167 324° Northwest 440 506 30,000  Level Anchorage Center
Sun 05:15:12 AM 57.1333 -133.6500 319° Northwest 440 506 30,000  Level Anchorage Center
Sun 05:16:12 AM 57.2333 -133.8000 321° Northwest 440 506 30,000  Level Anchorage Center
Sun 05:17:13 AM 57.3333 -133.9333 324° Northwest 440 506 30,000  Level Anchorage Center
Sun 05:18:13 AM 57.4167 -134.0833 316° Northwest 450 518 30,000  Level Anchorage Center
Sun 05:19:13 AM 57.5167 -134.2333 321° Northwest 440 506 30,000  Level Anchorage Center
Sun 05:20:14 AM 57.6167 -134.3833 321° Northwest 450 518 30,000  Level Anchorage Center
Sun 05:21:14 AM 57.7167 -134.5167 325° Northwest 440 506 30,000  Level Anchorage Center
Sun 05:22:14 AM 57.8000 -134.6667 316° Northwest 450 518 30,000  Level Anchorage Center
Sun 05:23:15 AM 57.9000 -134.8167 321° Northwest 440 506 30,000  Level Anchorage Center
Sun 05:24:15 AM 57.9833 -134.9667 316° Northwest 440 506 30,000  Level Anchorage Center
Sun 05:25:15 AM 58.0833 -135.1167 322° Northwest 440 506 30,000  Level Anchorage Center
Sun 05:26:16 AM 58.1833 -135.2500 325° Northwest 440 506 30,000  Level Anchorage Center
Sun 05:27:16 AM 58.2833 -135.3667 328° Northwest 440 506 30,000  Level Anchorage Center
Sun 05:28:17 AM 58.3833 -135.4833 329° Northwest 430 495 30,000  Level Anchorage Center
Sun 05:29:17 AM 58.4833 -135.6000 329° Northwest 430 495 30,000  Level Anchorage Center
Sun 05:30:17 AM 58.6000 -135.7000 336° Northwest 430 495 30,000  Level Anchorage Center
Sun 05:31:18 AM 58.7000 -135.8167 329° Northwest 440 506 30,000  Level Anchorage Center
Sun 05:32:18 AM 58.8000 -135.9333 329° Northwest 430 495 30,000  Level Anchorage Center
Sun 05:33:18 AM 58.9000 -136.0500 329° Northwest 440 506 30,000  Level Anchorage Center
Sun 05:34:19 AM 59.0167 -136.1667 333° Northwest 440 506 30,000  Level Anchorage Center
Sun 05:35:19 AM 59.1167 -136.2833 329° Northwest 440 506 30,000  Level Anchorage Center
Sun 05:36:19 AM 59.2333 -136.4000 333° Northwest 430 495 30,000  Level Anchorage Center
Sun 05:37:20 AM 59.3333 -136.5167 329° Northwest 440 506 30,000  Level Anchorage Center
Sun 05:38:20 AM 59.4500 -136.6667 327° Northwest 440 506 30,000  Level Anchorage Center
Sun 05:39:20 AM 59.5667 -136.7833 333° Northwest 440 506 30,000  Level Anchorage Center
Sun 05:40:21 AM 59.6667 -136.9167 326° Northwest 440 506 30,000  Level Anchorage Center
Sun 05:41:21 AM 59.7667 -137.0333 330° Northwest 440 506 30,000  Level Anchorage Center
Sun 05:42:22 AM 59.8833 -137.1667 330° Northwest 440 506 30,000  Level Anchorage Center
Sun 05:43:22 AM 59.9833 -137.2833 330° Northwest 450 518 30,000  Level Anchorage Center
Sun 05:44:22 AM 60.1000 -137.4167 330° Northwest 440 506 30,000  Level Anchorage Center
Sun 05:45:23 AM 60.2000 -137.5500 326° Northwest 440 506 30,000  Level Anchorage Center
Sun 05:46:23 AM 60.3000 -137.6667 330° Northwest 440 506 30,000  Level Anchorage Center
Sun 05:47:23 AM 60.4000 -137.8000 327° Northwest 440 506 30,000  Level Anchorage Center
Sun 05:48:24 AM 60.5167 -137.9333 331° Northwest 440 506 30,000  Level Anchorage Center
Sun 05:49:24 AM 60.6167 -138.0667 327° Northwest 440 506 30,000  Level Anchorage Center
Sun 05:50:24 AM 60.7167 -138.1833 330° Northwest 430 495 30,000  Level Anchorage Center
Sun 05:51:25 AM 60.8167 -138.3167 327° Northwest 440 506 30,000  Level Anchorage Center
Sun 05:52:25 AM 60.9333 -138.4500 331° Northwest 430 495 30,000  Level Anchorage Center
Sun 05:53:25 AM 61.0333 -138.5833 327° Northwest 440 506 30,000  Level Anchorage Center
Sun 05:54:26 AM 61.1333 -138.7167 327° Northwest 440 506 30,000  Level Anchorage Center
Sun 05:55:26 AM 61.2333 -138.8500 327° Northwest 430 495 30,000  Level Anchorage Center
Sun 05:57:47 AM 61.4667 -139.2000 324° Northwest 420 483 30,000  Level Anchorage Center
Sun 05:58:47 AM 61.5500 -139.3667 316° Northwest 420 483 30,000  Level Anchorage Center
Sun 06:00:00 AM 61.6544 -139.5586 319° Northwest  Level FlightAware Approximate
Sun 06:07:00 AM 62.2499 -140.6886 319° Northwest  Level FlightAware Approximate
Sun 06:08:00 AM 62.3342 -140.8537 318° Northwest  Level FlightAware Approximate
Sun 06:09:00 AM 62.4201 -141.0171 322° Northwest  Level FlightAware Approximate
Sun 06:10:00 AM 62.5100 -141.1688 322° Northwest  Level FlightAware Approximate
Sun 06:11:00 AM 62.5997 -141.3215 322° Northwest  Level FlightAware Approximate
Sun 06:12:00 AM 62.6892 -141.4750 322° Northwest  Level FlightAware Approximate
Sun 06:13:00 AM 62.7786 -141.6295 322° Northwest  Level FlightAware Approximate
Sun 06:13:13 AM 62.8500 -141.7500 307° West 430 495 30,000  Level Anchorage Center
Sun 06:14:00 AM 62.8678 -141.7850 322° Northwest  Level FlightAware Approximate
Sun 06:14:13 AM 62.9500 -141.9167 323° Northwest 440 506 30,000  Level Anchorage Center
Sun 06:15:00 AM 62.9518 -141.9523 308° West  Level FlightAware Approximate
Sun 06:15:13 AM 63.0167 -142.1167 306° West 420 483 30,000  Level Anchorage Center
Sun 06:16:00 AM 63.0216 -142.1508 308° West  Level FlightAware Approximate
Sun 06:16:14 AM 63.0833 -142.3167 306° West 420 483 30,000  Level Anchorage Center
Sun 06:17:00 AM 63.0910 -142.3503 308° West  Level FlightAware Approximate
Sun 06:17:14 AM 63.1500 -142.5333 304° West 420 483 30,000  Level Anchorage Center
Sun 06:18:00 AM 63.1602 -142.5507 307° West  Level FlightAware Approximate
Sun 06:18:14 AM 63.2333 -142.7333 313° West 420 483 30,000  Level Anchorage Center
Sun 06:19:15 AM 63.3000 -142.9500 304° West 420 483 30,000  Level Anchorage Center
Sun 06:20:15 AM 63.3667 -143.1500 307° West 420 483 30,000  Level Anchorage Center
Sun 06:21:15 AM 63.4333 -143.3667 305° West 420 483 30,000  Level Anchorage Center
Sun 06:22:16 AM 63.5000 -143.5833 305° West 420 483 30,000  Level Anchorage Center
Sun 06:23:16 AM 63.5667 -143.7833 307° West 420 483 30,000  Level Anchorage Center
Sun 06:24:16 AM 63.6333 -144.0000 305° West 420 483 30,000  Level Anchorage Center
Sun 06:25:17 AM 63.7000 -144.2333 303° West 420 483 30,000  Level Anchorage Center
Sun 06:26:17 AM 63.7667 -144.4500 305° West 420 483 30,000  Level Anchorage Center
Sun 06:27:17 AM 63.8333 -144.6500 307° West 420 483 30,000  Level Anchorage Center
Sun 06:28:23 AM 63.9167 -144.9167 305° West 420 483 30,000  Level Anchorage Center
Sun 06:29:23 AM 63.9833 -145.1500 303° West 420 483 30,000  Level Anchorage Center
Sun 06:30:24 AM 64.0500 -145.3667 305° West 420 483 30,000 -99 Level Anchorage Center
Sun 06:31:24 AM 64.1167 -145.6000 303° West 420 483 29,800 -600 Descending Anchorage Center
Sun 06:32:24 AM 64.1833 -145.8000 307° West 420 483 28,800 -1,884 Descending Anchorage Center
Sun 06:33:25 AM 64.2500 -146.0500 302° West 420 483 26,000 -2,754 Descending Anchorage Center
Sun 06:35:00 AM 64.3528 -146.3883 303° West  Level FlightAware Approximate
Sun 06:42:00 AM 64.5933 -147.9617 12° North  Level FlightAware Approximate
Sun 06:43:00 AM 64.7033 -147.9059 18° North  Level FlightAware Approximate
Sun 06:44:00 AM 64.8000 -147.8500 12° North  Level FlightAware Approximate
Sun 06:45:00 AM 64.8151 -147.8564 12° North  Level Estimated
Sun 06:46:00 AM 64.8151 -147.8564 12° North  Level Estimated
Sun 06:47:00 AM 64.8151 -147.8564 12° North  Level Estimated
Sun 06:48:00 AM 64.8151 -147.8564 12° North  Level Estimated
Sun 06:49:00 AM 64.8151 -147.8564 12° North  Level Estimated
Sun 06:50:00 AM 64.8151 -147.8564 12° North  Level Estimated
Sun 06:51:00 AM 64.8151 -147.8564 12° North  Level Estimated
Sun 06:52:00 AM 64.8151 -147.8564 12° North  Level Estimated
Sun 06:53:00 AM 64.8151 -147.8564 12° North  Level Estimated
Sun 06:54:00 AM 64.8151 -147.8564 12° North  Level Estimated
Sun 06:55:00 AM 64.8151 -147.8564 12° North  Level Estimated
Sun 06:56:00 AM 64.8151 -147.8564 12° North  Level Estimated
Sun 06:57:00 AM 64.8151 -147.8564 12° North  Level Estimated

Login

Don't have an account? Register now (free) for customized features, flight alerts, and more!